Time;durP1;ratioP1;P1;durP2;ratioP2;P2;SDS_P1;SDS_P2;PMS_P1;PMS_P2;Temp;Humidity;BMP_temperature;BMP_pressure;BME280_temperature;BME280_humidity;BME280_pressure;Samples;Min_cycle;Max_cycle;Signal;HPM_P1;HPM_P2
2022/02/04 00:08:14;;;;;;;10.83;9.83;;;13.20;90.90;;;;;;5117142;28;20500;-46
2022/02/04 00:24:06;;;;;;;13.90;12.50;;;10.50;91.00;;;;;;5118121;28;20405;-45
2022/02/04 00:26:37;;;;;;;12.53;11.33;;;10.20;91.40;;;;;;5111973;28;20465;-45
2022/02/04 00:31:52;;;;;;;13.43;12.13;;;9.70;92.70;;;;;;5117766;28;20433;-45
2022/02/04 00:34:20;;;;;;;14.60;13.20;;;9.50;93.00;;;;;;5117200;28;20420;-45
2022/02/04 00:37:03;;;;;;;13.73;12.33;;;9.40;93.30;;;;;;5117357;28;20417;-45
2022/02/04 00:39:37;;;;;;;17.43;13.53;;;9.20;93.60;;;;;;5115984;28;20416;-45
2022/02/04 00:42:07;;;;;;;12.77;11.47;;;9.10;93.80;;;;;;5117759;28;20720;-45
2022/02/04 00:44:36;;;;;;;15.10;13.40;;;9.00;93.90;;;;;;5115991;28;20463;-46
2022/02/04 00:47:11;;;;;;;14.00;12.60;;;8.90;94.00;;;;;;5117167;28;20424;-45
2022/02/04 00:53:05;;;;;;;13.87;12.40;;;8.70;94.30;;;;;;5117465;28;20854;-45
2022/02/04 00:55:28;;;;;;;14.30;12.10;;;8.60;94.40;;;;;;5111935;28;20433;-46
2022/02/04 01:06:26;;;;;;;14.63;13.13;;;8.50;94.50;;;;;;5118084;28;20500;-45
2022/02/04 01:28:00;;;;;;;13.43;12.13;;;8.00;95.20;;;;;;5102564;28;20477;-46
2022/02/04 01:30:31;;;;;;;12.13;10.97;;;8.00;95.30;;;;;;5098113;28;20480;-46
2022/02/04 01:32:57;;;;;;;12.27;11.00;;;8.00;95.30;;;;;;5117767;28;20180;-46
2022/02/04 01:35:22;;;;;;;11.60;10.50;;;8.00;95.30;;;;;;5116358;28;20439;-46
2022/02/04 01:37:48;;;;;;;12.30;10.47;;;8.00;95.20;;;;;;5118140;28;20183;-45
2022/02/04 01:40:14;;;;;;;11.33;10.03;;;8.00;95.30;;;;;;5115964;28;20187;-45
2022/02/04 01:42:39;;;;;;;9.87;8.93;;;7.90;95.30;;;;;;5118386;28;20202;-45
2022/02/04 01:45:05;;;;;;;11.10;9.93;;;7.90;95.40;;;;;;5120547;28;20180;-45
2022/02/04 01:47:31;;;;;;;12.33;11.13;;;7.90;95.50;;;;;;5121951;28;20179;-45
2022/02/04 01:49:57;;;;;;;11.37;10.17;;;7.80;95.50;;;;;;5119698;28;20974;-45
2022/02/04 01:52:23;;;;;;;10.73;9.73;;;7.90;95.60;;;;;;5121622;28;20210;-45
2022/02/04 01:54:49;;;;;;;10.63;9.70;;;7.90;95.60;;;;;;5102322;28;20460;-45
2022/02/04 01:57:15;;;;;;;10.80;9.77;;;7.90;95.60;;;;;;5121509;28;20444;-45
2022/02/04 01:59:40;;;;;;;11.30;10.20;;;7.90;95.50;;;;;;5119926;28;20198;-45
2022/02/04 02:02:07;;;;;;;11.00;9.87;;;7.90;95.60;;;;;;5121132;28;20591;-45
2022/02/04 02:04:32;;;;;;;10.73;9.63;;;7.90;95.60;;;;;;5101814;28;20176;-46
2022/02/04 02:07:01;;;;;;;11.37;10.27;;;7.80;95.60;;;;;;5121405;28;20550;-45
2022/02/04 02:09:36;;;;;;;11.30;10.30;;;7.80;95.60;;;;;;5119712;28;20235;-45
2022/02/04 02:12:06;;;;;;;11.37;10.20;;;7.80;95.70;;;;;;5121017;28;20468;-45
2022/02/04 02:14:33;;;;;;;11.50;10.30;;;7.90;95.70;;;;;;5120275;28;20433;-45
2022/02/04 02:47:12;;;;;;;9.50;8.50;;;7.80;95.80;;;;;;5104147;28;20578;-45
2022/02/04 03:02:37;;;;;;;9.73;8.83;;;7.70;95.90;;;;;;5088159;28;20456;-45
2022/02/04 03:05:03;;;;;;;8.97;8.17;;;7.80;95.90;;;;;;5119162;28;20452;-45
2022/02/04 03:07:29;;;;;;;10.47;9.53;;;7.70;95.80;;;;;;5119903;28;20433;-45
2022/02/04 03:09:54;;;;;;;9.17;8.37;;;7.80;95.90;;;;;;5118816;28;20215;-45
2022/02/04 03:12:20;;;;;;;9.40;8.50;;;7.70;95.90;;;;;;5120184;28;20500;-46
2022/02/04 03:14:46;;;;;;;9.43;8.53;;;7.70;95.90;;;;;;5118500;28;20274;-45
2022/02/04 03:17:13;;;;;;;9.43;8.50;;;7.70;95.90;;;;;;5120232;28;20186;-45
2022/02/04 03:19:42;;;;;;;9.47;8.57;;;7.70;95.90;;;;;;5118919;28;20266;-45
2022/02/04 03:22:11;;;;;;;9.07;8.27;;;7.70;95.80;;;;;;5119929;28;20439;-45
2022/02/04 03:24:40;;;;;;;10.83;7.40;;;7.80;95.80;;;;;;5119773;28;20421;-46
2022/02/04 03:27:09;;;;;;;8.37;7.57;;;7.70;95.70;;;;;;5118545;28;20438;-45
2022/02/04 03:29:56;;;;;;;9.10;8.27;;;7.70;95.70;;;;;;5115400;28;20458;-45
2022/02/04 03:32:22;;;;;;;7.43;6.73;;;7.70;95.60;;;;;;5106199;28;20546;-45
2022/02/04 03:34:47;;;;;;;8.60;7.80;;;7.70;95.60;;;;;;5099084;28;20425;-45
2022/02/04 03:37:13;;;;;;;7.90;7.10;;;7.70;95.60;;;;;;5096915;28;20831;-45
2022/02/04 03:39:39;;;;;;;14.07;7.67;;;7.60;95.50;;;;;;5098916;28;20175;-46
2022/02/04 03:42:05;;;;;;;7.90;7.10;;;7.60;95.40;;;;;;5097081;28;20221;-46
2022/02/04 03:44:32;;;;;;;8.30;7.50;;;7.60;95.40;;;;;;5098502;28;20201;-46
2022/02/04 03:46:58;;;;;;;8.17;7.37;;;7.60;95.50;;;;;;5097194;28;20445;-46
2022/02/04 03:49:24;;;;;;;6.73;6.13;;;7.60;95.50;;;;;;5099058;28;20559;-46
2022/02/04 03:51:50;;;;;;;8.07;7.27;;;7.50;95.40;;;;;;5081203;28;20426;-46
2022/02/04 03:54:15;;;;;;;6.90;6.30;;;7.50;95.50;;;;;;5098872;28;20176;-46
2022/02/04 03:56:41;;;;;;;6.37;5.87;;;7.50;95.40;;;;;;5080096;28;20198;-46
2022/02/04 03:59:06;;;;;;;7.17;6.47;;;7.50;95.40;;;;;;5098744;28;20199;-46
2022/02/04 04:01:32;;;;;;;7.50;6.70;;;7.50;95.30;;;;;;5097063;28;20176;-46
2022/02/04 04:03:58;;;;;;;9.50;5.90;;;7.50;95.30;;;;;;5098403;28;20523;-46
2022/02/04 04:06:23;;;;;;;6.80;6.20;;;7.50;95.30;;;;;;5096762;28;20184;-45
2022/02/04 04:08:53;;;;;;;6.00;5.37;;;7.50;95.40;;;;;;5098839;28;20204;-46
2022/02/04 04:11:18;;;;;;;6.53;5.90;;;7.50;95.40;;;;;;5098371;28;20307;-46
2022/02/04 04:13:44;;;;;;;6.97;6.27;;;7.50;95.40;;;;;;5096992;28;20528;-46
2022/02/04 04:16:10;;;;;;;7.30;6.60;;;7.40;95.50;;;;;;5098370;28;20176;-46
2022/02/04 04:18:36;;;;;;;6.23;5.63;;;7.50;95.50;;;;;;5097529;28;20192;-46
2022/02/04 04:21:02;;;;;;;6.40;5.90;;;7.40;95.40;;;;;;5098324;28;20419;-46
2022/02/04 04:23:28;;;;;;;7.67;6.33;;;7.40;95.50;;;;;;5097232;28;20434;-46
2022/02/04 04:25:54;;;;;;;6.70;6.13;;;7.40;95.50;;;;;;5098572;28;20183;-46
2022/02/04 04:28:19;;;;;;;7.30;6.70;;;7.40;95.60;;;;;;5096885;28;20430;-46
2022/02/04 04:30:45;;;;;;;6.00;5.50;;;7.40;95.60;;;;;;5098672;28;20281;-46
2022/02/04 04:33:11;;;;;;;6.70;6.00;;;7.40;95.70;;;;;;5097040;28;20187;-46
2022/02/04 04:35:37;;;;;;;6.60;6.00;;;7.40;95.80;;;;;;5098583;28;20240;-46
2022/02/04 04:38:14;;;;;;;7.07;6.47;;;7.40;95.80;;;;;;5098011;28;20836;-46
2022/02/04 05:29:27;;;;;;;8.00;7.30;;;7.30;95.30;;;;;;5118066;28;20477;-44
2022/02/04 05:31:53;;;;;;;7.97;7.30;;;7.30;95.30;;;;;;5099767;28;20417;-43
2022/02/04 05:34:19;;;;;;;8.37;7.30;;;7.30;95.40;;;;;;5119624;28;20649;-42
2022/02/04 05:36:47;;;;;;;9.77;7.90;;;7.30;95.40;;;;;;5119985;28;20472;-44
2022/02/04 05:39:15;;;;;;;7.90;7.10;;;7.30;95.40;;;;;;5119692;28;20458;-42
2022/02/04 05:41:46;;;;;;;8.10;7.30;;;7.20;95.30;;;;;;5120470;28;20500;-42
2022/02/04 05:44:14;;;;;;;8.10;7.30;;;7.20;95.40;;;;;;5119092;28;20421;-42
2022/02/04 05:46:52;;;;;;;8.77;7.97;;;7.20;95.40;;;;;;5120897;28;20440;-41
2022/02/04 05:49:20;;;;;;;7.00;6.30;;;7.20;95.40;;;;;;5119333;28;20464;-42
2022/02/04 05:51:56;;;;;;;8.13;6.60;;;7.20;95.40;;;;;;5120597;28;20421;-40
2022/02/04 05:57:24;;;;;;;7.87;7.17;;;7.20;95.50;;;;;;5089241;28;20451;-41
2022/02/04 06:13:54;;;;;;;6.90;6.23;;;7.10;95.70;;;;;;5096624;28;20426;-43
2022/02/04 06:22:18;;;;;;;7.20;6.50;;;7.10;95.90;;;;;;5095921;28;20516;-42
2022/02/04 06:24:46;;;;;;;6.80;6.17;;;7.10;95.90;;;;;;5096639;28;20866;-42
2022/02/04 06:27:12;;;;;;;7.87;6.90;;;7.10;96.10;;;;;;5094671;28;20422;-43
2022/02/04 06:29:37;;;;;;;6.93;6.33;;;7.10;96.10;;;;;;5077067;28;21056;-42
2022/02/04 06:32:03;;;;;;;6.00;5.40;;;7.10;96.20;;;;;;5095070;28;20176;-42
2022/02/04 06:34:29;;;;;;;6.43;5.83;;;7.10;96.20;;;;;;5079504;28;20180;-42
2022/02/04 06:36:55;;;;;;;7.27;6.57;;;7.10;96.30;;;;;;5093505;28;20427;-41
2022/02/04 06:39:20;;;;;;;7.27;6.57;;;7.10;96.30;;;;;;5102296;28;20186;-42
2022/02/04 06:41:46;;;;;;;7.43;6.73;;;7.10;96.40;;;;;;5087152;28;20329;-42
2022/02/04 06:44:12;;;;;;;7.33;6.63;;;7.10;96.40;;;;;;5113668;28;20180;-42
2022/02/04 06:46:39;;;;;;;7.40;6.70;;;7.10;96.40;;;;;;5095314;28;20430;-41
2022/02/04 06:49:05;;;;;;;7.80;7.00;;;7.00;96.40;;;;;;5094781;28;20224;-40
2022/02/04 06:51:30;;;;;;;7.00;6.40;;;7.00;96.40;;;;;;5093315;28;20539;-42
2022/02/04 06:53:56;;;;;;;7.60;6.90;;;7.00;96.50;;;;;;5094502;28;20178;-41
2022/02/04 06:56:22;;;;;;;7.07;6.47;;;6.90;96.50;;;;;;5093773;28;20255;-41
2022/02/04 06:58:47;;;;;;;7.67;6.97;;;6.90;96.60;;;;;;5097186;28;20187;-43
2022/02/04 07:01:13;;;;;;;6.60;5.90;;;6.90;96.70;;;;;;5113614;28;20275;-40
2022/02/04 07:03:39;;;;;;;7.30;6.60;;;6.90;96.70;;;;;;5098080;28;20172;-41
2022/02/04 07:06:05;;;;;;;7.23;6.53;;;6.90;96.70;;;;;;5099698;28;20177;-43
2022/02/04 07:14:06;;;;;;;7.83;7.03;;;7.00;96.90;;;;;;5119811;27;20441;-40
2022/02/04 07:21:40;;;;;;;8.40;7.60;;;7.00;97.00;;;;;;5117721;28;21412;-43
2022/02/04 07:24:06;;;;;;;9.57;8.40;;;7.00;97.00;;;;;;5118615;28;20718;-41
2022/02/04 07:26:32;;;;;;;8.40;7.60;;;7.00;97.00;;;;;;5117038;28;20176;-41
2022/02/04 07:29:02;;;;;;;9.20;8.30;;;7.00;97.00;;;;;;5114124;28;20175;-41
2022/02/04 07:31:31;;;;;;;8.63;7.73;;;7.00;97.00;;;;;;5116651;28;20532;-40
2022/02/04 07:41:42;;;;;;;9.23;8.33;;;7.20;96.90;;;;;;5115491;28;20728;-41
2022/02/04 07:44:08;;;;;;;9.60;8.60;;;7.30;96.80;;;;;;5114820;28;20425;-40
2022/02/04 07:46:34;;;;;;;9.30;8.40;;;7.30;96.70;;;;;;5115602;28;20184;-42
2022/02/04 07:49:01;;;;;;;11.87;8.70;;;7.30;97.00;;;;;;5115554;28;20453;-41
2022/02/04 07:51:27;;;;;;;8.97;8.13;;;7.40;96.70;;;;;;5116470;28;20461;-41
2022/02/04 07:53:52;;;;;;;10.30;9.20;;;7.40;96.70;;;;;;5114815;28;20417;-42
2022/02/04 07:56:23;;;;;;;9.53;8.63;;;7.40;96.70;;;;;;5119546;27;20428;-42
2022/02/04 07:58:56;;;;;;;10.33;9.33;;;7.40;96.70;;;;;;5105369;27;20168;-41
2022/02/04 08:01:26;;;;;;;10.10;9.20;;;7.50;96.70;;;;;;5127143;27;20472;-42
2022/02/04 08:04:10;;;;;;;9.97;9.07;;;7.50;96.70;;;;;;5126344;27;20425;-41
2022/02/04 08:06:41;;;;;;;14.73;9.63;;;7.60;96.70;;;;;;5129261;27;20405;-41
2022/02/04 08:20:22;;;;;;;10.60;9.53;;;8.20;96.00;;;;;;5095316;27;20421;-42
2022/02/04 08:36:49;;;;;;;6.73;4.70;;;10.10;97.70;;;;;;5125795;27;20646;-42
2022/02/04 08:50:35;;;;;;;8.77;7.87;;;15.60;91.60;;;;;;5125144;27;20579;-43
2022/02/04 08:53:04;;;;;;;7.30;6.70;;;16.40;90.00;;;;;;5135437;27;20478;-44
2022/02/04 08:58:39;;;;;;;7.20;6.60;;;17.30;78.30;;;;;;5121385;28;20419;-41
2022/02/04 09:08:59;;;;;;;6.20;5.70;;;14.90;71.40;;;;;;5124390;28;20542;-43
2022/02/04 09:19:19;;;;;;;7.60;6.90;;;13.40;75.20;;;;;;5134735;28;20537;-46
2022/02/04 09:24:12;;;;;;;7.30;6.53;;;13.20;76.70;;;;;;5135200;28;20432;-45
2022/02/04 09:26:44;;;;;;;7.87;7.03;;;13.40;77.10;;;;;;5136502;28;20179;-42
2022/02/04 09:29:10;;;;;;;7.70;7.00;;;13.40;76.90;;;;;;5135297;28;20470;-43
2022/02/04 09:31:37;;;;;;;7.73;7.03;;;13.30;76.60;;;;;;5118447;28;20465;-42
2022/02/04 09:34:04;;;;;;;7.23;6.60;;;13.30;76.40;;;;;;5135906;28;20438;-42
2022/02/04 09:36:29;;;;;;;7.27;6.57;;;13.20;76.40;;;;;;5138300;28;20424;-43
2022/02/04 09:38:55;;;;;;;5.53;5.03;;;13.30;76.50;;;;;;5135404;28;20510;-42
2022/02/04 09:41:22;;;;;;;5.90;5.40;;;13.50;87.90;;;;;;5135661;28;20172;-42
2022/02/04 09:43:48;;;;;;;6.17;5.63;;;14.40;87.10;;;;;;5134644;28;20185;-42
2022/02/04 09:46:15;;;;;;;6.03;5.40;;;14.90;82.80;;;;;;5136078;28;20416;-44
2022/02/04 09:48:43;;;;;;;5.50;4.80;;;15.10;80.30;;;;;;5134734;28;20423;-42
2022/02/04 09:51:12;;;;;;;4.40;4.00;;;15.30;78.70;;;;;;5136843;28;20475;-42
2022/02/04 10:07:58;;;;;;;3.77;3.43;;;15.60;74.20;;;;;;5137136;27;20518;-42
2022/02/04 10:15:52;;;;;;;3.50;3.20;;;15.50;73.50;;;;;;5138767;27;20188;-42
2022/02/04 10:21:02;;;;;;;3.33;3.03;;;15.50;73.20;;;;;;5138099;27;20482;-42
2022/02/04 10:23:58;;;;;;;3.30;3.00;;;15.30;71.00;;;;;;5135672;27;20431;-45
2022/02/04 10:26:24;;;;;;;3.50;3.20;;;14.90;70.00;;;;;;5135583;27;20487;-43
2022/02/04 10:28:51;;;;;;;2.70;2.40;;;14.50;69.20;;;;;;5137227;27;20422;-44
2022/02/04 10:31:28;;;;;;;3.70;3.20;;;14.10;69.60;;;;;;5134917;27;20433;-43
2022/02/04 10:33:57;;;;;;;3.60;3.30;;;13.70;70.40;;;;;;5136660;27;20421;-43
2022/02/04 10:36:40;;;;;;;4.00;3.70;;;13.40;71.40;;;;;;5135149;27;20580;-44
2022/02/04 10:39:54;;;;;;;4.70;4.30;;;13.10;72.90;;;;;;5121005;27;20453;-42
2022/02/04 10:42:49;;;;;;;8.63;4.03;;;12.90;73.90;;;;;;5121516;27;20517;-43
2022/02/04 10:48:24;;;;;;;3.23;2.93;;;12.60;74.70;;;;;;5137749;27;20422;-43
2022/02/04 11:01:27;;;;;;;3.70;3.40;;;12.00;75.30;;;;;;5134774;27;20435;-43
2022/02/04 11:03:57;;;;;;;4.30;2.93;;;11.90;74.90;;;;;;5132737;27;20442;-42
2022/02/04 11:09:06;;;;;;;3.07;2.60;;;11.60;74.50;;;;;;5097265;28;20948;-41
2022/02/04 11:31:08;;;;;;;1.80;1.60;;;11.60;75.20;;;;;;5094740;28;20531;-42
2022/02/04 11:34:05;;;;;;;2.27;1.80;;;11.60;75.30;;;;;;5096536;28;20474;-42
2022/02/04 11:54:36;;;;;;;2.40;1.60;;;11.50;76.20;;;;;;5096688;28;20415;-42
2022/02/04 11:57:05;;;;;;;2.10;1.80;;;11.60;76.30;;;;;;5075329;28;20445;-42
2022/02/04 11:59:36;;;;;;;1.80;1.60;;;11.60;75.80;;;;;;5096094;28;20418;-43
2022/02/04 12:02:22;;;;;;;1.50;1.40;;;11.50;75.40;;;;;;5093312;28;20448;-42
2022/02/04 12:04:48;;;;;;;1.97;1.70;;;11.60;75.60;;;;;;5094604;28;20445;-42
2022/02/04 12:07:33;;;;;;;2.83;2.37;;;11.60;75.00;;;;;;5073697;28;20901;-42
2022/02/04 12:10:01;;;;;;;2.10;1.90;;;11.50;74.60;;;;;;5095017;28;20482;-42
2022/02/04 12:13:10;;;;;;;2.20;1.70;;;11.40;74.20;;;;;;5107861;27;20497;-42
2022/02/04 12:15:49;;;;;;;1.80;1.63;;;11.30;74.30;;;;;;5105956;27;20426;-42
2022/02/04 12:18:43;;;;;;;2.20;1.60;;;11.20;74.40;;;;;;5109561;28;20443;-42
2022/02/04 12:21:11;;;;;;;3.13;1.63;;;11.20;74.50;;;;;;5117075;27;20989;-43
2022/02/04 12:23:48;;;;;;;1.67;1.53;;;11.00;74.00;;;;;;5081672;28;20736;-43
2022/02/04 12:26:34;;;;;;;3.53;2.40;;;10.90;74.50;;;;;;5118255;27;20425;-43
2022/02/04 12:29:13;;;;;;;2.17;1.77;;;10.80;74.60;;;;;;5121549;27;20516;-43
2022/02/04 12:31:43;;;;;;;2.10;1.90;;;10.80;75.00;;;;;;5128203;27;21033;-45
2022/02/04 12:34:14;;;;;;;1.77;1.67;;;10.80;75.30;;;;;;5115765;28;20418;-45
2022/02/04 12:36:47;;;;;;;2.53;2.00;;;10.60;75.00;;;;;;5113927;28;20835;-43
2022/02/04 12:39:14;;;;;;;2.40;1.70;;;10.70;75.30;;;;;;5114955;28;20491;-44
2022/02/04 12:41:44;;;;;;;2.40;1.93;;;10.70;75.60;;;;;;5115092;28;21300;-42
2022/02/04 12:44:11;;;;;;;2.07;1.90;;;10.70;75.70;;;;;;5115965;28;20418;-42
2022/02/04 12:46:41;;;;;;;2.13;1.30;;;10.80;75.70;;;;;;5096223;28;20419;-42
2022/02/04 12:49:09;;;;;;;2.07;1.43;;;11.00;75.30;;;;;;5113426;28;20439;-42
2022/02/04 12:51:50;;;;;;;1.90;1.67;;;11.10;75.10;;;;;;5076166;28;20872;-43
2022/02/04 12:54:51;;;;;;;2.50;1.73;;;11.30;74.80;;;;;;5113349;28;20415;-43
2022/02/04 13:03:10;;;;;;;2.03;1.83;;;11.20;72.00;;;;;;5113084;28;20485;-45
2022/02/04 13:09:23;;;;;;;1.53;1.43;;;11.00;72.30;;;;;;5096896;28;20440;-43
2022/02/04 13:11:18;;;;;;;2.23;1.70;;;11.00;71.90;;;;;;5109743;28;20496;-43
2022/02/04 13:13:48;;;;;;;2.13;1.87;;;10.90;71.80;;;;;;5112677;28;20498;-42
2022/02/04 13:16:27;;;;;;;1.77;1.47;;;10.80;72.00;;;;;;5115304;28;20441;-43
2022/02/04 13:18:54;;;;;;;1.70;1.60;;;10.60;71.90;;;;;;5115380;28;20425;-42
2022/02/04 13:21:21;;;;;;;1.90;1.70;;;10.50;72.40;;;;;;5096735;28;20433;-45
2022/02/04 13:23:46;;;;;;;2.10;1.50;;;10.50;73.10;;;;;;5115122;28;20460;-42
2022/02/04 13:26:13;;;;;;;2.40;1.87;;;10.40;73.40;;;;;;5114641;28;20874;-43
2022/02/04 13:28:41;;;;;;;2.20;1.70;;;10.40;73.80;;;;;;5112795;28;20474;-45
2022/02/04 13:31:10;;;;;;;4.20;2.10;;;10.30;74.30;;;;;;5113941;28;20476;-43
2022/02/04 13:33:39;;;;;;;7.07;2.80;;;10.50;90.70;;;;;;5112166;28;20448;-46
2022/02/04 13:44:43;;;;;;;1.77;1.63;;;15.00;87.40;;;;;;5116698;28;20436;-42
2022/02/04 13:52:55;;;;;;;1.80;1.60;;;13.50;71.10;;;;;;5119532;28;20421;-42
2022/02/04 14:01:14;;;;;;;1.67;1.53;;;12.20;70.30;;;;;;5115723;28;20476;-41
2022/02/04 14:03:47;;;;;;;1.50;1.40;;;11.90;70.80;;;;;;5098900;28;20799;-41
2022/02/04 14:06:23;;;;;;;1.50;1.20;;;11.70;71.00;;;;;;5119015;28;20497;-43
2022/02/04 14:08:56;;;;;;;2.03;1.70;;;11.40;71.00;;;;;;5119942;28;20436;-43
2022/02/04 14:11:34;;;;;;;2.00;1.30;;;11.20;71.50;;;;;;5118090;28;20465;-41
2022/02/04 14:14:02;;;;;;;3.20;1.80;;;11.10;71.80;;;;;;5119732;28;20489;-42
2022/02/04 14:16:28;;;;;;;1.40;1.10;;;10.80;72.10;;;;;;5118040;28;20425;-42
2022/02/04 14:18:54;;;;;;;1.67;1.40;;;10.70;72.50;;;;;;5099758;28;20439;-42
2022/02/04 14:21:20;;;;;;;2.90;1.70;;;10.60;72.90;;;;;;5097334;28;20219;-42
2022/02/04 14:23:49;;;;;;;2.00;1.43;;;10.50;73.30;;;;;;5116520;28;20436;-42
2022/02/04 14:26:22;;;;;;;1.80;1.43;;;10.50;73.80;;;;;;5115922;28;20436;-42
2022/02/04 14:36:34;;;;;;;1.83;1.63;;;10.20;74.80;;;;;;5118584;28;20667;-41
2022/02/04 15:00:43;;;;;;;2.27;1.23;;;9.70;79.00;;;;;;5115668;28;20417;-41
2022/02/04 15:05:59;;;;;;;1.30;0.97;;;9.50;79.80;;;;;;5119617;28;20422;-40
2022/02/04 15:08:23;;;;;;;1.57;1.37;;;9.50;79.50;;;;;;5114253;28;20189;-41
2022/02/04 15:10:49;;;;;;;2.00;1.33;;;9.50;79.90;;;;;;5115287;28;20473;-42
2022/02/04 15:13:16;;;;;;;1.77;1.20;;;9.40;80.00;;;;;;5114912;28;20184;-43
2022/02/04 15:15:42;;;;;;;1.57;1.33;;;9.40;80.10;;;;;;5116300;28;20441;-42
2022/02/04 15:18:09;;;;;;;1.50;1.00;;;9.40;80.20;;;;;;5116757;28;20433;-42
2022/02/04 15:20:35;;;;;;;2.20;1.20;;;9.40;80.40;;;;;;5100361;28;20438;-42
2022/02/04 15:23:01;;;;;;;1.10;0.80;;;9.30;80.60;;;;;;5114677;28;20534;-40
2022/02/04 15:25:26;;;;;;;1.67;1.07;;;9.30;80.90;;;;;;5115373;28;20414;-42
2022/02/04 15:28:14;;;;;;;2.13;1.13;;;9.20;81.10;;;;;;5114043;28;20429;-43
2022/02/04 15:30:44;;;;;;;0.97;0.70;;;9.20;81.40;;;;;;5115973;28;20208;-41
2022/02/04 15:33:10;;;;;;;1.43;1.00;;;9.10;81.50;;;;;;5114983;28;20503;-40
2022/02/04 15:35:36;;;;;;;1.80;0.90;;;9.10;81.70;;;;;;5115959;28;20420;-42
2022/02/04 15:38:02;;;;;;;2.20;0.97;;;9.10;81.90;;;;;;5113068;28;20445;-43
2022/02/04 15:40:28;;;;;;;1.10;0.90;;;9.10;82.10;;;;;;5115821;28;20448;-42
2022/02/04 15:43:00;;;;;;;1.67;0.87;;;9.10;82.20;;;;;;5114681;28;20172;-42
2022/02/04 15:48:15;;;;;;;1.00;0.80;;;9.00;82.60;;;;;;5098793;28;20555;-42
2022/02/04 15:56:05;;;;;;;1.97;1.60;;;9.00;82.90;;;;;;5116788;28;20693;-42
2022/02/04 16:05:56;;;;;;;2.87;1.00;;;8.70;84.00;;;;;;5118440;28;20413;-40
2022/02/04 16:08:22;;;;;;;0.90;0.50;;;8.70;84.20;;;;;;5115829;28;20501;-41
2022/02/04 16:10:53;;;;;;;1.60;1.10;;;8.60;84.20;;;;;;5118153;28;20237;-41
2022/02/04 16:15:56;;;;;;;1.23;0.77;;;8.60;84.70;;;;;;5117223;28;20465;-42
2022/02/04 16:18:26;;;;;;;1.03;0.80;;;8.60;84.90;;;;;;5116494;28;20418;-42
2022/02/04 16:21:09;;;;;;;1.17;0.80;;;8.60;85.00;;;;;;5116902;28;20779;-43
2022/02/04 16:26:46;;;;;;;1.67;0.97;;;8.60;85.40;;;;;;5116921;28;20483;-43
2022/02/04 16:29:08;;;;;;;1.40;0.83;;;8.50;85.40;;;;;;5117912;28;20435;-42
2022/02/04 16:31:34;;;;;;;1.43;1.00;;;8.50;85.50;;;;;;5117617;28;20417;-41
2022/02/04 16:34:00;;;;;;;1.40;1.07;;;8.50;85.70;;;;;;5115929;28;20190;-42
2022/02/04 16:36:27;;;;;;;1.20;0.87;;;8.40;85.50;;;;;;5115474;28;20437;-42
2022/02/04 16:38:54;;;;;;;1.13;0.80;;;8.40;85.60;;;;;;5116043;28;20417;-43
2022/02/04 16:41:27;;;;;;;1.97;1.07;;;8.40;85.40;;;;;;5097153;28;20956;-43
2022/02/04 16:43:53;;;;;;;1.43;1.10;;;8.40;85.40;;;;;;5098714;28;20413;-41
2022/02/04 16:46:19;;;;;;;1.33;1.20;;;8.40;85.40;;;;;;5115188;28;20425;-43
2022/02/04 16:48:44;;;;;;;1.20;0.90;;;8.30;85.20;;;;;;5114817;28;20235;-42
2022/02/04 16:51:10;;;;;;;1.80;1.20;;;8.30;85.20;;;;;;5111738;28;20364;-43
2022/02/04 16:53:36;;;;;;;1.60;1.10;;;8.30;85.30;;;;;;5090017;28;20216;-42
2022/02/04 16:56:03;;;;;;;1.93;1.30;;;8.20;85.10;;;;;;5095284;28;20650;-43
2022/02/04 16:58:30;;;;;;;1.27;1.03;;;8.20;85.10;;;;;;5110311;28;20945;-39
2022/02/04 17:00:57;;;;;;;1.40;0.90;;;8.20;85.10;;;;;;5094712;28;20423;-38
2022/02/04 17:03:24;;;;;;;1.87;1.20;;;8.20;85.00;;;;;;5097102;28;20445;-41
2022/02/04 17:05:54;;;;;;;1.47;1.10;;;8.10;84.90;;;;;;5093388;28;20456;-39
2022/02/04 17:08:45;;;;;;;1.20;1.00;;;8.10;84.90;;;;;;5104965;28;20731;-39
2022/02/04 17:11:23;;;;;;;1.53;1.27;;;8.00;85.00;;;;;;5093795;28;20489;-38
2022/02/04 17:13:48;;;;;;;1.90;1.30;;;8.00;85.20;;;;;;5110159;28;20425;-38
2022/02/04 17:16:16;;;;;;;1.37;1.13;;;8.00;85.20;;;;;;5117235;28;20422;-38
2022/02/04 17:18:42;;;;;;;1.27;1.00;;;7.90;85.30;;;;;;5102938;28;20191;-37
2022/02/04 17:21:07;;;;;;;3.13;1.27;;;7.90;85.40;;;;;;5096946;28;20520;-47
2022/02/04 17:23:44;;;;;;;1.20;1.00;;;7.90;85.50;;;;;;5111297;28;20563;-46
2022/02/04 17:26:11;;;;;;;1.43;1.13;;;7.90;85.40;;;;;;5115410;28;20194;-46
2022/02/04 17:28:36;;;;;;;1.87;1.30;;;7.90;85.50;;;;;;5089195;28;20431;-46
2022/02/04 17:31:03;;;;;;;1.70;1.23;;;7.90;85.60;;;;;;5116801;28;20508;-46
2022/02/04 17:33:31;;;;;;;1.83;1.37;;;7.90;85.70;;;;;;5120292;28;20171;-46
2022/02/04 17:35:57;;;;;;;2.17;1.10;;;7.80;86.00;;;;;;5119622;28;20520;-46
2022/02/04 17:38:24;;;;;;;1.57;1.20;;;8.80;99.90;;;;;;5119850;28;20409;-46
2022/02/04 17:40:51;;;;;;;2.53;1.10;;;9.30;99.90;;;;;;5116527;28;20466;-46
2022/02/04 17:43:18;;;;;;;2.50;1.00;;;10.00;99.90;;;;;;5100726;28;20486;-46
2022/02/04 17:45:44;;;;;;;2.00;1.00;;;10.60;99.10;;;;;;5101657;28;20469;-45
2022/02/04 17:48:21;;;;;;;2.10;1.30;;;11.10;97.70;;;;;;5098054;28;20686;-45
2022/02/04 17:50:52;;;;;;;1.27;1.07;;;11.60;96.80;;;;;;5112901;28;20473;-45
2022/02/04 17:53:27;;;;;;;3.07;1.57;;;12.00;94.80;;;;;;5100885;28;20431;-45
2022/02/04 17:56:04;;;;;;;1.73;1.03;;;11.90;89.90;;;;;;5099988;28;20435;-45
2022/02/04 18:06:25;;;;;;;1.50;1.20;;;10.30;79.20;;;;;;5117282;28;20437;-46
2022/02/04 18:08:51;;;;;;;2.10;1.33;;;9.90;81.20;;;;;;5116612;28;20439;-45
2022/02/04 18:11:16;;;;;;;1.63;1.13;;;9.60;82.30;;;;;;5117641;28;21517;-45
2022/02/04 18:13:42;;;;;;;1.60;1.20;;;9.40;83.20;;;;;;5118484;28;20189;-45
2022/02/04 18:16:10;;;;;;;2.50;1.43;;;9.20;84.10;;;;;;5116696;28;20535;-45
2022/02/04 18:18:36;;;;;;;1.60;1.30;;;9.00;85.10;;;;;;5119876;28;20195;-45
2022/02/04 18:21:04;;;;;;;2.03;1.50;;;8.80;85.80;;;;;;5116422;28;20507;-46
2022/02/04 18:23:37;;;;;;;2.23;1.80;;;8.70;86.50;;;;;;5120005;28;20441;-46
2022/02/04 18:26:08;;;;;;;2.30;1.70;;;8.60;87.20;;;;;;5119204;28;20425;-47
2022/02/04 18:28:34;;;;;;;1.90;1.53;;;8.50;88.00;;;;;;5118058;28;20430;-46
2022/02/04 18:31:00;;;;;;;2.23;1.70;;;8.40;88.60;;;;;;5118485;28;20553;-46
2022/02/04 18:33:26;;;;;;;1.60;1.43;;;8.40;89.90;;;;;;5097942;28;20171;-45
2022/02/04 18:35:58;;;;;;;2.00;1.73;;;8.30;90.10;;;;;;5118181;28;20266;-46
2022/02/04 18:38:40;;;;;;;1.90;1.77;;;8.20;90.10;;;;;;5102212;28;20181;-46
2022/02/04 18:41:24;;;;;;;1.40;1.30;;;8.20;90.30;;;;;;5078399;28;20436;-46
2022/02/04 18:43:57;;;;;;;2.00;1.60;;;8.10;90.60;;;;;;5078525;28;20438;-46
2022/02/04 18:46:56;;;;;;;2.13;1.90;;;8.00;90.80;;;;;;5095833;28;20503;-47
2022/02/04 18:49:41;;;;;;;1.80;1.40;;;8.00;91.10;;;;;;5096311;28;20483;-46
2022/02/04 18:57:24;;;;;;;1.50;1.30;;;7.80;92.00;;;;;;5094665;28;20424;-47
2022/02/04 19:02:16;;;;;;;1.63;1.43;;;7.80;92.20;;;;;;5102410;28;20536;-47
2022/02/04 19:04:51;;;;;;;2.23;1.77;;;7.80;92.30;;;;;;5097861;28;20535;-46
2022/02/04 19:07:22;;;;;;;2.33;2.03;;;7.70;92.50;;;;;;5098283;28;20684;-46
2022/02/04 19:09:49;;;;;;;1.97;1.73;;;7.70;92.70;;;;;;5098225;28;20472;-46
2022/02/04 19:12:18;;;;;;;2.20;1.90;;;7.70;92.80;;;;;;5097510;28;20784;-46
2022/02/04 19:17:26;;;;;;;1.80;1.50;;;7.60;93.00;;;;;;5115915;28;20597;-46
2022/02/04 19:19:59;;;;;;;2.03;1.77;;;7.60;93.10;;;;;;5098557;28;20191;-46
2022/02/04 19:22:37;;;;;;;2.53;1.50;;;7.60;93.30;;;;;;5113873;28;20412;-46
2022/02/04 19:25:08;;;;;;;2.60;1.90;;;7.60;93.50;;;;;;5117001;28;20517;-47
2022/02/04 19:27:34;;;;;;;3.60;1.90;;;7.60;93.80;;;;;;5115787;28;20596;-47
2022/02/04 19:30:01;;;;;;;1.87;1.23;;;7.50;94.00;;;;;;5097917;28;20458;-47
2022/02/04 19:32:27;;;;;;;1.83;1.57;;;7.50;94.20;;;;;;5114348;28;20192;-47
2022/02/04 19:34:53;;;;;;;2.40;1.60;;;7.50;94.30;;;;;;5117261;28;20405;-46
2022/02/04 19:37:19;;;;;;;3.27;1.87;;;7.60;97.00;;;;;;5103920;28;20497;-47
2022/02/04 19:39:47;;;;;;;1.30;1.20;;;8.10;99.10;;;;;;5097309;28;20188;-47
2022/02/04 19:42:26;;;;;;;1.53;1.10;;;8.00;97.00;;;;;;5096460;28;20465;-47
2022/02/04 19:44:56;;;;;;;2.00;1.37;;;7.90;95.10;;;;;;5097287;28;20765;-47
2022/02/04 19:47:34;;;;;;;1.40;1.10;;;7.80;94.90;;;;;;5097119;28;20422;-47
2022/02/04 19:53:09;;;;;;;1.80;1.17;;;7.80;94.20;;;;;;5094115;28;20498;-47
2022/02/04 20:25:01;;;;;;;1.97;1.50;;;7.60;95.30;;;;;;5117469;28;20420;-46
2022/02/04 20:27:28;;;;;;;1.20;0.83;;;7.60;95.30;;;;;;5118923;28;20544;-46
2022/02/04 20:29:56;;;;;;;1.70;1.13;;;7.60;95.30;;;;;;5098174;28;20481;-47
2022/02/04 20:32:23;;;;;;;1.80;0.90;;;7.60;95.30;;;;;;5117852;28;20417;-47
2022/02/04 20:34:48;;;;;;;2.20;1.40;;;7.60;95.40;;;;;;5115256;28;20440;-46
2022/02/04 20:37:14;;;;;;;1.20;0.97;;;7.60;95.40;;;;;;5098710;28;20426;-46
2022/02/04 20:39:47;;;;;;;1.77;1.30;;;7.60;95.40;;;;;;5093830;28;20184;-47